createdAt,value
2023-03-24T00:00:48.526Z,52.80
2023-03-24T00:03:17.964Z,53.00
2023-03-24T00:05:45.625Z,53.02
2023-03-24T00:08:12.820Z,53.03
2023-03-24T00:10:40.617Z,53.14
2023-03-24T00:13:07.889Z,53.18
2023-03-24T00:15:36.531Z,53.08
2023-03-24T00:18:06.308Z,53.14
2023-03-24T00:20:33.635Z,53.31
2023-03-24T00:23:00.742Z,53.16
2023-03-24T00:25:36.295Z,53.47
2023-03-24T00:28:07.441Z,53.39
2023-03-24T00:30:35.451Z,53.26
2023-03-24T00:33:04.436Z,53.35
2023-03-24T00:35:31.742Z,53.54
2023-03-24T00:37:59.386Z,53.42
2023-03-24T00:40:27.954Z,53.54
2023-03-24T00:42:56.134Z,53.62
2023-03-24T00:45:23.836Z,53.59
2023-03-24T00:47:58.316Z,53.49
2023-03-24T00:50:27.590Z,53.46
2023-03-24T00:52:56.482Z,53.27
2023-03-24T00:55:23.741Z,53.30
2023-03-24T00:57:51.441Z,53.15
2023-03-24T01:00:25.979Z,53.23
2023-03-24T01:02:54.402Z,53.15
2023-03-24T01:05:31.990Z,53.28
2023-03-24T01:08:03.617Z,53.31
2023-03-24T01:10:34.459Z,53.16
2023-03-24T01:13:02.740Z,53.38
2023-03-24T01:15:34.699Z,53.54
2023-03-24T01:18:02.788Z,53.50
2023-03-24T01:20:36.257Z,53.27
2023-03-24T01:23:07.913Z,53.31
2023-03-24T01:25:37.553Z,53.49
2023-03-24T01:28:05.398Z,53.97
2023-03-24T01:30:39.007Z,53.93
2023-03-24T01:33:08.351Z,54.55
2023-03-24T01:35:36.551Z,55.77
2023-03-24T01:38:09.054Z,56.11
2023-03-24T01:40:38.920Z,56.48
2023-03-24T01:43:07.569Z,56.52
2023-03-24T01:45:40.845Z,57.13
2023-03-24T01:48:37.109Z,57.03
2023-03-24T01:51:18.508Z,58.19
2023-03-24T01:54:01.758Z,58.29
2023-03-24T01:56:34.355Z,57.19
2023-03-24T01:59:15.476Z,56.72
2023-03-24T02:02:03.190Z,55.88
2023-03-24T02:04:50.579Z,55.14
2023-03-24T02:07:21.582Z,54.71
2023-03-24T02:09:53.079Z,54.46
2023-03-24T02:12:20.859Z,54.30
2023-03-24T02:14:48.476Z,54.22
2023-03-24T02:17:22.636Z,54.14
2023-03-24T02:19:58.973Z,54.29
2023-03-24T02:22:58.747Z,54.12
2023-03-24T02:25:56.028Z,54.13
2023-03-24T02:28:48.752Z,54.02
2023-03-24T02:31:31.432Z,54.04
2023-03-24T02:34:41.302Z,54.31
2023-03-24T02:37:51.856Z,54.46
2023-03-24T02:40:25.923Z,54.31
2023-03-24T02:43:07.598Z,54.19
2023-03-24T02:45:43.275Z,54.34
2023-03-24T02:48:28.609Z,54.16
2023-03-24T02:51:13.657Z,53.95
2023-03-24T02:53:41.162Z,53.74
2023-03-24T02:56:59.148Z,53.87
2023-03-24T02:59:57.988Z,53.65
2023-03-24T03:03:09.858Z,53.40
2023-03-24T03:05:42.598Z,53.80
2023-03-24T03:08:12.767Z,53.68
2023-03-24T03:10:44.125Z,53.75
2023-03-24T03:13:35.713Z,53.54
2023-03-24T03:16:19.798Z,53.80
2023-03-24T03:18:55.512Z,53.89
2023-03-24T03:21:26.727Z,54.04
2023-03-24T03:24:02.484Z,54.00
2023-03-24T03:26:32.986Z,53.67
2023-03-24T03:29:19.079Z,53.74
2023-03-24T03:32:05.799Z,53.74
2023-03-24T03:35:03.532Z,53.83
2023-03-24T03:37:34.637Z,54.23
2023-03-24T03:40:09.335Z,54.33
2023-03-24T03:42:43.529Z,54.33
2023-03-24T03:45:14.503Z,54.09
2023-03-24T03:47:46.239Z,54.24
2023-03-24T03:50:13.904Z,54.15
2023-03-24T03:52:41.879Z,54.08
2023-03-24T03:55:10.443Z,54.23
2023-03-24T03:57:40.664Z,54.08
2023-03-24T04:00:20.624Z,53.95
2023-03-24T04:03:27.485Z,54.36
2023-03-24T04:06:21.811Z,54.32
2023-03-24T04:08:52.202Z,54.13
2023-03-24T04:11:37.756Z,54.44
2023-03-24T04:14:52.456Z,54.60
2023-03-24T04:17:43.092Z,54.43
2023-03-24T04:20:34.743Z,54.38
2023-03-24T04:23:15.104Z,54.54
2023-03-24T04:25:59.024Z,54.65
2023-03-24T04:28:44.331Z,54.89
2023-03-24T04:31:23.886Z,54.50
2023-03-24T04:34:03.833Z,54.76
2023-03-24T04:36:44.473Z,55.11
2023-03-24T04:39:32.969Z,54.77
2023-03-24T04:42:10.337Z,54.91
2023-03-24T04:44:39.038Z,54.65
2023-03-24T04:47:33.446Z,54.78
2023-03-24T04:50:32.468Z,54.78
2023-03-24T04:53:01.916Z,54.83
2023-03-24T04:55:35.032Z,54.96
2023-03-24T04:58:02.301Z,54.76
2023-03-24T05:00:29.554Z,54.69
2023-03-24T05:02:56.915Z,54.82
2023-03-24T05:05:28.737Z,54.81
2023-03-24T05:07:57.142Z,54.94
2023-03-24T05:10:24.530Z,54.86
2023-03-24T05:12:55.689Z,55.05
2023-03-24T05:15:22.844Z,55.33
2023-03-24T05:17:57.042Z,55.33
2023-03-24T05:20:27.354Z,55.32
2023-03-24T05:23:06.212Z,55.40
2023-03-24T05:25:33.657Z,55.17
2023-03-24T05:28:00.947Z,55.35
2023-03-24T05:30:28.474Z,55.51
2023-03-24T05:33:04.980Z,55.44
2023-03-24T05:35:35.803Z,55.34
2023-03-24T05:38:03.087Z,55.35
2023-03-24T05:40:30.919Z,55.41
2023-03-24T05:43:10.144Z,55.66
2023-03-24T05:45:42.010Z,55.73
2023-03-24T05:48:20.514Z,55.57
2023-03-24T05:51:27.238Z,55.84
2023-03-24T05:54:06.616Z,56.21
2023-03-24T05:56:40.851Z,55.95
2023-03-24T05:59:17.375Z,56.35
2023-03-24T06:02:06.292Z,56.55
2023-03-24T06:04:52.610Z,56.40
2023-03-24T06:07:27.016Z,56.56
2023-03-24T06:09:58.448Z,56.58
2023-03-24T06:12:26.786Z,56.55
2023-03-24T06:15:02.790Z,56.71
2023-03-24T06:17:32.054Z,56.65
2023-03-24T06:20:14.017Z,56.92
2023-03-24T06:22:47.586Z,57.06
2023-03-24T06:25:21.813Z,56.90
2023-03-24T06:28:06.047Z,56.34
2023-03-24T06:30:34.457Z,57.01
2023-03-24T06:33:02.486Z,57.04
2023-03-24T06:35:33.067Z,56.89
2023-03-24T06:38:09.010Z,56.72
2023-03-24T06:40:37.746Z,56.48
2023-03-24T06:43:09.897Z,56.53
2023-03-24T06:45:44.748Z,56.52
2023-03-24T06:48:24.481Z,56.55
2023-03-24T06:50:58.273Z,56.65
2023-03-24T06:53:29.215Z,56.46
2023-03-24T06:55:56.983Z,56.66
2023-03-24T06:58:26.692Z,56.70
2023-03-24T07:01:08.976Z,56.81
2023-03-24T07:03:45.602Z,56.56
2023-03-24T07:06:40.479Z,56.56
2023-03-24T07:09:19.397Z,56.24
2023-03-24T07:11:49.548Z,56.36
2023-03-24T07:14:17.046Z,56.11
2023-03-24T07:16:45.377Z,56.20
2023-03-24T07:19:42.437Z,56.06
2023-03-24T07:22:45.157Z,55.83
2023-03-24T07:25:41.938Z,55.76
2023-03-24T07:28:44.405Z,55.83
2023-03-24T07:31:12.788Z,55.48
2023-03-24T07:33:41.575Z,55.38
2023-03-24T07:36:09.179Z,55.10
2023-03-24T07:38:39.078Z,55.12
2023-03-24T07:41:12.007Z,54.73
2023-03-24T07:43:43.470Z,54.68
2023-03-24T07:46:24.648Z,54.37
2023-03-24T07:48:54.785Z,54.18
2023-03-24T07:51:22.961Z,53.81
2023-03-24T07:54:14.570Z,53.57
2023-03-24T07:56:45.956Z,53.29
2023-03-24T07:59:13.369Z,53.06
2023-03-24T08:02:04.184Z,52.92
2023-03-24T08:04:40.139Z,52.73
2023-03-24T08:07:20.105Z,52.56
2023-03-24T08:09:50.532Z,52.08
2023-03-24T08:12:20.548Z,52.26
2023-03-24T08:14:48.019Z,52.01
2023-03-24T08:17:15.151Z,51.94
2023-03-24T08:19:56.244Z,51.56
2023-03-24T08:22:27.159Z,51.06
2023-03-24T08:24:54.335Z,51.05
2023-03-24T08:27:21.742Z,50.81
2023-03-24T08:29:48.905Z,49.37
2023-03-24T08:32:16.370Z,49.29
2023-03-24T08:34:44.530Z,48.81
2023-03-24T08:37:13.030Z,48.40
2023-03-24T08:39:43.564Z,47.54
2023-03-24T08:42:10.787Z,46.77
2023-03-24T08:44:37.936Z,46.53
2023-03-24T08:47:05.079Z,46.47
2023-03-24T08:49:32.236Z,45.30
2023-03-24T08:51:59.479Z,44.70
2023-03-24T08:54:26.965Z,44.78
2023-03-24T08:56:56.926Z,44.71
2023-03-24T08:59:24.137Z,44.08
2023-03-24T09:01:53.786Z,43.77
2023-03-24T09:04:21.335Z,42.61
2023-03-24T09:06:50.195Z,42.23
2023-03-24T09:09:17.467Z,42.08
2023-03-24T09:11:44.781Z,41.85
2023-03-24T09:14:11.955Z,41.86
2023-03-24T09:16:39.735Z,41.65
2023-03-24T09:19:07.649Z,40.93
2023-03-24T09:21:34.999Z,40.14
2023-03-24T09:24:02.286Z,39.70
2023-03-24T09:26:30.401Z,40.05
2023-03-24T09:28:57.787Z,39.10
2023-03-24T09:31:25.047Z,38.80
2023-03-24T09:33:52.822Z,38.83
2023-03-24T09:36:20.767Z,38.40
2023-03-24T09:38:53.108Z,36.51
2023-03-24T09:41:34.286Z,35.40
2023-03-24T09:44:34.359Z,34.54
2023-03-24T09:47:10.613Z,34.59
2023-03-24T09:49:41.844Z,35.83
2023-03-24T09:52:14.784Z,35.37
2023-03-24T09:54:54.107Z,34.60
2023-03-24T09:57:37.027Z,35.48
2023-03-24T10:00:35.091Z,35.06
2023-03-24T10:03:23.736Z,35.73
2023-03-24T10:06:00.746Z,36.26
2023-03-24T10:08:42.501Z,35.87
2023-03-24T10:11:39.223Z,35.88
2023-03-24T10:14:54.113Z,36.85
2023-03-24T10:17:54.564Z,35.78
2023-03-24T10:20:48.304Z,35.79
2023-03-24T10:24:00.517Z,33.97
2023-03-24T10:26:56.762Z,33.59
2023-03-24T10:29:30.653Z,33.02
2023-03-24T10:32:16.751Z,32.76
2023-03-24T10:34:49.805Z,33.50
2023-03-24T10:37:17.874Z,32.96
2023-03-24T10:39:45.466Z,33.05
2023-03-24T10:42:27.572Z,31.78
2023-03-24T10:44:54.934Z,31.55
2023-03-24T10:47:32.953Z,29.41
2023-03-24T10:50:14.030Z,29.31
2023-03-24T10:52:48.045Z,30.44
2023-03-24T10:55:19.701Z,30.93
2023-03-24T10:57:58.200Z,29.68
2023-03-24T11:00:32.968Z,30.09
2023-03-24T11:03:07.001Z,30.92
2023-03-24T11:05:38.090Z,30.81
2023-03-24T11:08:17.714Z,30.91
2023-03-24T11:10:45.279Z,31.17
2023-03-24T11:13:26.774Z,30.64
2023-03-24T11:16:06.298Z,31.23
2023-03-24T11:18:34.022Z,32.34
2023-03-24T11:21:06.389Z,32.85
2023-03-24T11:23:45.442Z,34.92
2023-03-24T11:26:28.085Z,36.54
2023-03-24T11:29:02.837Z,36.19
2023-03-24T11:31:38.473Z,36.22
2023-03-24T11:34:26.423Z,35.95
2023-03-24T11:36:58.417Z,35.37
2023-03-24T11:39:31.921Z,35.60
2023-03-24T11:42:08.613Z,35.62
2023-03-24T11:44:38.687Z,35.09
2023-03-24T11:47:34.165Z,36.18
2023-03-24T11:50:13.679Z,36.38
2023-03-24T11:52:44.017Z,35.76
2023-03-24T11:55:23.472Z,35.36
2023-03-24T11:57:58.388Z,35.72
2023-03-24T12:00:35.306Z,35.70
2023-03-24T12:03:34.319Z,35.78
2023-03-24T12:06:17.262Z,36.46
2023-03-24T12:08:58.421Z,36.80
2023-03-24T12:11:43.635Z,34.96
2023-03-24T12:14:11.019Z,34.25
2023-03-24T12:16:54.825Z,32.76
2023-03-24T12:19:44.534Z,33.01
2023-03-24T12:22:33.361Z,33.04
2023-03-24T12:25:41.890Z,31.56
2023-03-24T12:28:09.780Z,32.19
2023-03-24T12:31:17.119Z,28.17
2023-03-24T12:34:11.220Z,29.32
2023-03-24T12:36:42.742Z,30.12
2023-03-24T12:39:19.142Z,32.44
2023-03-24T12:41:49.260Z,33.33
2023-03-24T12:44:22.567Z,32.37
2023-03-24T12:46:54.423Z,32.07
2023-03-24T12:49:43.711Z,31.34
2023-03-24T12:52:58.140Z,30.56
2023-03-24T12:55:39.283Z,31.91
2023-03-24T12:58:31.165Z,30.48
2023-03-24T13:01:23.933Z,30.12
2023-03-24T13:04:31.343Z,29.78
2023-03-24T13:07:12.398Z,30.27
2023-03-24T13:10:14.746Z,30.01
2023-03-24T13:12:49.510Z,30.87
2023-03-24T13:15:23.286Z,29.54
2023-03-24T13:17:58.234Z,29.34
2023-03-24T13:20:46.013Z,29.24
2023-03-24T13:23:44.050Z,29.46
2023-03-24T13:26:45.546Z,29.59
2023-03-24T13:29:41.882Z,29.20
2023-03-24T13:32:25.106Z,29.41
2023-03-24T13:35:30.842Z,29.12
2023-03-24T13:41:43.991Z,29.33
2023-03-24T13:44:27.693Z,30.03
2023-03-24T13:47:26.566Z,29.51
2023-03-24T13:50:15.793Z,29.07
2023-03-24T13:52:54.135Z,29.12
2023-03-24T13:55:29.279Z,28.77
2023-03-24T13:58:47.896Z,23.58
2023-03-24T14:01:50.387Z,21.85
2023-03-24T14:04:51.278Z,21.14
2023-03-24T14:07:40.363Z,20.56
2023-03-24T14:10:23.722Z,21.30
2023-03-24T14:13:07.042Z,20.99
2023-03-24T14:16:19.865Z,20.59
2023-03-24T14:19:08.738Z,21.08
2023-03-24T14:22:30.563Z,20.67
2023-03-24T14:25:35.671Z,21.26
2023-03-24T14:28:31.031Z,21.42
2023-03-24T14:31:21.259Z,21.35
2023-03-24T14:34:27.982Z,22.41
2023-03-24T14:37:07.948Z,31.52
2023-03-24T14:39:53.277Z,34.89
2023-03-24T14:42:47.474Z,38.25
2023-03-24T14:45:35.246Z,40.83
2023-03-24T14:48:10.406Z,41.34
2023-03-24T14:50:38.750Z,42.53
2023-03-24T14:53:16.622Z,45.59
2023-03-24T14:55:59.755Z,44.22
2023-03-24T15:01:34.551Z,45.85
2023-03-24T15:04:12.778Z,45.30
2023-03-24T15:06:48.348Z,46.22
2023-03-24T15:09:18.946Z,46.61
2023-03-24T15:11:52.435Z,46.21
2023-03-24T15:14:24.301Z,46.32
2023-03-24T15:17:03.799Z,46.45
2023-03-24T15:19:34.944Z,45.64
2023-03-24T15:22:44.884Z,47.66
2023-03-24T15:25:18.948Z,46.15
2023-03-24T15:28:03.446Z,46.22
2023-03-24T15:30:44.578Z,46.54
2023-03-24T15:33:53.011Z,47.06
2023-03-24T15:36:23.676Z,45.74
2023-03-24T15:38:59.758Z,45.80
2023-03-24T15:41:38.470Z,46.18
2023-03-24T15:44:28.459Z,47.06
2023-03-24T15:47:13.950Z,47.41
2023-03-24T15:50:04.297Z,47.07
2023-03-24T15:55:42.897Z,47.38
2023-03-24T15:58:32.265Z,47.03
2023-03-24T16:01:33.589Z,47.42
2023-03-24T16:04:15.229Z,46.25
2023-03-24T16:06:53.434Z,46.87
2023-03-24T16:09:27.952Z,46.86
2023-03-24T16:11:55.497Z,46.40
2023-03-24T16:14:36.155Z,47.82
2023-03-24T16:17:04.146Z,47.15
2023-03-24T16:19:31.301Z,47.12
2023-03-24T16:21:58.623Z,47.19
2023-03-24T16:24:33.612Z,48.16
2023-03-24T16:27:09.027Z,47.94
2023-03-24T16:29:37.058Z,48.03
2023-03-24T16:32:07.297Z,49.02
2023-03-24T16:34:37.627Z,48.77
2023-03-24T16:37:09.576Z,49.08
2023-03-24T16:39:36.748Z,48.86
2023-03-24T16:42:03.956Z,48.98
2023-03-24T16:44:31.211Z,49.81
2023-03-24T16:46:58.683Z,51.01
2023-03-24T16:49:28.808Z,51.01
2023-03-24T16:51:57.213Z,51.55
2023-03-24T16:54:24.680Z,50.61
2023-03-24T16:56:52.218Z,51.27
2023-03-24T16:59:23.133Z,50.39
2023-03-24T17:01:59.346Z,50.87
2023-03-24T17:04:27.682Z,51.27
2023-03-24T17:06:57.784Z,50.97
2023-03-24T17:09:25.085Z,51.63
2023-03-24T17:11:56.110Z,51.61
2023-03-24T17:14:24.061Z,51.37
2023-03-24T17:16:55.039Z,51.23
2023-03-24T17:19:26.760Z,51.18
2023-03-24T17:22:04.060Z,52.57
2023-03-24T17:24:36.085Z,51.96
2023-03-24T17:27:04.804Z,51.99
2023-03-24T17:29:35.682Z,51.42
2023-03-24T17:32:02.984Z,52.23
2023-03-24T17:34:31.605Z,51.12
2023-03-24T17:36:58.789Z,51.74
2023-03-24T17:39:25.881Z,52.36
2023-03-24T17:41:57.706Z,51.60
2023-03-24T17:44:24.864Z,51.68
2023-03-24T17:46:52.079Z,52.62
2023-03-24T17:49:19.450Z,53.15
2023-03-24T17:51:46.593Z,53.40
2023-03-24T17:54:14.006Z,53.50
2023-03-24T17:56:44.134Z,53.83
2023-03-24T17:59:11.596Z,53.27
2023-03-24T18:01:39.699Z,53.62
2023-03-24T18:04:07.243Z,53.73
2023-03-24T18:06:38.777Z,52.82
2023-03-24T18:09:09.458Z,53.17
2023-03-24T18:11:40.088Z,53.29
2023-03-24T18:14:22.822Z,53.58
2023-03-24T18:16:50.047Z,54.43
2023-03-24T18:19:20.393Z,53.65
2023-03-24T18:21:50.469Z,53.78
2023-03-24T18:24:21.859Z,53.17
2023-03-24T18:26:50.412Z,53.35
2023-03-24T18:29:17.979Z,53.66
2023-03-24T18:31:46.937Z,54.44
2023-03-24T18:34:14.335Z,53.58
2023-03-24T18:36:43.451Z,53.90
2023-03-24T18:39:11.379Z,53.37
2023-03-24T18:41:41.444Z,54.11
2023-03-24T18:44:12.647Z,54.14
2023-03-24T18:46:39.895Z,54.11
2023-03-24T18:49:08.209Z,53.99
2023-03-24T18:51:38.298Z,54.82
2023-03-24T18:54:19.892Z,54.69
2023-03-24T18:56:56.941Z,53.89
2023-03-24T18:59:27.422Z,54.00
2023-03-24T19:01:58.211Z,54.89
2023-03-24T19:04:35.444Z,53.93
2023-03-24T19:07:16.899Z,54.14
2023-03-24T19:09:44.884Z,54.84
2023-03-24T19:12:15.298Z,55.02
2023-03-24T19:14:50.044Z,54.63
2023-03-24T19:17:27.753Z,54.57
2023-03-24T19:20:00.912Z,54.30
2023-03-24T19:22:41.839Z,54.82
2023-03-24T19:25:20.838Z,54.83
2023-03-24T19:28:04.966Z,55.04
2023-03-24T19:33:29.991Z,54.59
2023-03-24T19:36:05.294Z,54.51
2023-03-24T19:38:44.816Z,55.60
2023-03-24T19:41:14.569Z,54.48
2023-03-24T19:43:49.820Z,54.78
2023-03-24T19:46:23.576Z,54.63
2023-03-24T19:48:51.896Z,55.84
2023-03-24T19:51:21.530Z,54.86
2023-03-24T19:53:48.861Z,54.74
2023-03-24T19:56:18.984Z,54.97
2023-03-24T19:58:46.570Z,55.38
2023-03-24T20:01:19.134Z,54.87
2023-03-24T20:03:47.475Z,54.43
2023-03-24T20:06:14.968Z,55.46
2023-03-24T20:09:00.735Z,54.59
2023-03-24T20:11:39.283Z,55.26
2023-03-24T20:14:10.507Z,55.51
2023-03-24T20:16:48.176Z,54.79
2023-03-24T20:19:19.335Z,54.62
2023-03-24T20:21:47.288Z,55.31
2023-03-24T20:24:16.787Z,55.03
2023-03-24T20:26:43.908Z,54.89
2023-03-24T20:29:11.377Z,55.71
2023-03-24T20:31:41.702Z,54.84
2023-03-24T20:34:11.812Z,54.53
2023-03-24T20:36:39.156Z,55.21
2023-03-24T20:39:06.294Z,55.04
2023-03-24T20:41:34.284Z,55.67
2023-03-24T20:44:10.791Z,55.84
2023-03-24T20:46:38.168Z,55.37
2023-03-24T20:49:05.843Z,54.86
2023-03-24T20:51:36.959Z,55.26
2023-03-24T20:54:05.885Z,55.33
2023-03-24T20:56:33.064Z,54.98
2023-03-24T20:59:01.375Z,54.94
2023-03-24T21:01:40.238Z,55.13
2023-03-24T21:04:19.322Z,55.06
2023-03-24T21:06:54.908Z,55.11
2023-03-24T21:09:27.986Z,55.25
2023-03-24T21:11:57.720Z,54.63
2023-03-24T21:14:40.772Z,54.87
2023-03-24T21:17:10.734Z,54.62
2023-03-24T21:19:47.085Z,55.42
2023-03-24T21:22:15.670Z,54.63
2023-03-24T21:24:45.094Z,54.64
2023-03-24T21:27:12.256Z,55.47
2023-03-24T21:29:45.196Z,55.42
2023-03-24T21:32:12.705Z,54.88
2023-03-24T21:34:42.674Z,54.67
2023-03-24T21:37:14.766Z,54.76
2023-03-24T21:39:45.284Z,54.51
2023-03-24T21:42:15.665Z,54.37
2023-03-24T21:44:44.871Z,54.67
2023-03-24T21:47:15.282Z,54.35
2023-03-24T21:49:50.303Z,54.71
2023-03-24T21:52:26.775Z,54.44
2023-03-24T21:55:03.971Z,54.62
2023-03-24T21:57:43.997Z,54.69
2023-03-24T22:00:16.706Z,54.83
2023-03-24T22:02:47.582Z,54.65
2023-03-24T22:05:18.189Z,54.63
2023-03-24T22:08:12.294Z,54.63
2023-03-24T22:10:49.037Z,54.78
2023-03-24T22:13:24.953Z,54.60
2023-03-24T22:16:05.266Z,54.47
2023-03-24T22:18:38.110Z,54.21
2023-03-24T22:21:21.210Z,54.90
2023-03-24T22:23:51.598Z,54.83
2023-03-24T22:26:21.942Z,54.70
2023-03-24T22:28:54.126Z,54.62
2023-03-24T22:31:23.527Z,54.53
2023-03-24T22:33:53.495Z,54.70
2023-03-24T22:36:26.621Z,54.82
2023-03-24T22:39:08.373Z,54.97
2023-03-24T22:41:52.716Z,54.65
2023-03-24T22:44:25.913Z,54.81
2023-03-24T22:47:10.407Z,54.75
2023-03-24T22:49:41.916Z,54.39
2023-03-24T22:52:37.021Z,54.65
2023-03-24T22:55:12.602Z,54.64
2023-03-24T22:57:53.368Z,54.35
2023-03-24T23:00:21.177Z,54.43
2023-03-24T23:02:51.860Z,54.35
2023-03-24T23:05:23.478Z,54.06
2023-03-24T23:07:50.887Z,54.37
2023-03-24T23:10:24.288Z,54.32
2023-03-24T23:12:54.463Z,54.57
2023-03-24T23:15:23.587Z,54.28
2023-03-24T23:17:57.447Z,54.25
2023-03-24T23:20:28.423Z,54.16
2023-03-24T23:22:58.042Z,54.03
2023-03-24T23:25:31.330Z,54.36
2023-03-24T23:28:01.896Z,54.06
2023-03-24T23:30:28.999Z,54.03
2023-03-24T23:32:59.089Z,53.74
2023-03-24T23:35:31.564Z,53.69
2023-03-24T23:38:01.475Z,54.08
2023-03-24T23:40:31.330Z,53.71
2023-03-24T23:43:13.553Z,53.81
2023-03-24T23:45:48.417Z,53.85
2023-03-24T23:48:18.247Z,53.54
2023-03-24T23:50:59.395Z,53.43
2023-03-24T23:53:29.787Z,53.63
2023-03-24T23:56:03.454Z,54.03
2023-03-24T23:58:34.525Z,53.87
